createdAt,value
2018-01-16T00:02:34.415Z,0.69
2018-01-16T00:17:34.930Z,0.74
2018-01-16T00:32:35.717Z,0.79
2018-01-16T00:47:34.264Z,0.76
2018-01-16T01:02:36.929Z,0.80
2018-01-16T01:17:34.616Z,0.80
2018-01-16T01:32:34.505Z,0.78
2018-01-16T01:47:34.414Z,0.76
2018-01-16T02:02:34.359Z,0.76
2018-01-16T02:17:34.372Z,0.75
2018-01-16T02:32:34.715Z,0.70
2018-01-16T02:47:34.685Z,0.76
2018-01-16T03:02:34.574Z,0.80
2018-01-16T03:17:34.596Z,0.82
2018-01-16T03:32:34.955Z,0.85
2018-01-16T03:47:35.517Z,0.83
2018-01-16T04:02:34.762Z,0.83
2018-01-16T04:17:54.768Z,0.85
2018-01-16T04:32:37.208Z,0.87
2018-01-16T04:47:35.470Z,0.88
2018-01-16T05:02:35.556Z,0.57
2018-01-16T05:17:39.238Z,0.56
2018-01-16T05:32:34.425Z,0.53
2018-01-16T05:47:34.408Z,0.69
2018-01-16T06:02:36.279Z,0.44
2018-01-16T06:17:35.817Z,0.23
2018-01-16T06:32:36.612Z,0.29
2018-01-16T06:47:36.562Z,1.08
2018-01-16T07:02:34.402Z,2.19
2018-01-16T07:17:37.486Z,1.60
2018-01-16T07:32:34.811Z,1.56
2018-01-16T07:47:34.779Z,1.58
2018-01-16T08:02:34.688Z,1.88
2018-01-16T08:17:36.635Z,1.93
2018-01-16T08:32:36.524Z,2.66
2018-01-16T08:47:35.988Z,3.55
2018-01-16T09:02:34.365Z,4.08
2018-01-16T09:32:34.195Z,7.78
2018-01-16T09:47:34.680Z,9.87
2018-01-16T10:02:34.687Z,10.83
2018-01-16T10:17:39.578Z,10.92
2018-01-16T10:32:48.303Z,10.30
2018-01-16T10:47:36.811Z,9.51
2018-01-16T11:02:35.305Z,8.65
2018-01-16T11:17:35.647Z,8.50
2018-01-16T11:32:38.687Z,8.78
2018-01-16T11:47:36.128Z,8.72
2018-01-16T12:02:36.109Z,8.52
2018-01-16T12:17:35.090Z,7.93
2018-01-16T12:32:34.911Z,8.02
2018-01-16T12:47:36.362Z,8.04
2018-01-16T13:02:34.781Z,7.39
2018-01-16T13:17:35.832Z,7.14
2018-01-16T13:32:35.085Z,6.77
2018-01-16T13:47:36.065Z,6.66
2018-01-16T14:02:35.837Z,6.08
2018-01-16T14:17:36.875Z,5.90
2018-01-16T14:32:34.296Z,5.63
2018-01-16T15:17:33.726Z,5.14
2018-01-16T16:02:38.864Z,4.23
2018-01-16T16:32:36.239Z,4.16
2018-01-16T16:47:35.737Z,4.04
2018-01-16T17:32:48.467Z,4.09
2018-01-16T18:02:34.939Z,3.70
2018-01-16T18:17:34.904Z,3.72
2018-01-16T19:17:35.051Z,4.12
2018-01-16T19:32:37.836Z,3.95
2018-01-16T20:02:39.720Z,3.98
2018-01-16T21:02:40.590Z,7.05
2018-01-16T21:32:40.380Z,6.77
2018-01-16T21:47:38.418Z,6.37
2018-01-16T22:02:38.987Z,6.13
2018-01-16T22:17:35.278Z,5.95
2018-01-16T22:32:36.057Z,5.97
2018-01-16T23:17:34.473Z,5.52
